createdAt,value
2023-03-29T00:00:15.764Z,60
2023-03-29T00:00:48.396Z,59
2023-03-29T00:01:35.774Z,60
2023-03-29T00:01:52.304Z,60
2023-03-29T00:02:23.404Z,60
2023-03-29T00:02:56.563Z,60
2023-03-29T00:03:27.667Z,61
2023-03-29T00:04:02.395Z,61
2023-03-29T00:04:31.448Z,61
2023-03-29T00:05:04.242Z,62
2023-03-29T00:05:35.367Z,62
2023-03-29T00:06:08.177Z,62
2023-03-29T00:06:39.237Z,62
2023-03-29T00:07:12.242Z,62
2023-03-29T00:07:43.287Z,63
2023-03-29T00:08:16.491Z,63
2023-03-29T00:08:47.080Z,64
2023-03-29T00:09:20.050Z,64
2023-03-29T00:09:51.389Z,66
2023-03-29T00:10:24.301Z,66
2023-03-29T00:10:55.106Z,66
2023-03-29T00:11:28.315Z,67
2023-03-29T00:11:59.183Z,67
2023-03-29T00:12:32.014Z,68
2023-03-29T00:13:03.023Z,69
2023-03-29T00:13:36.144Z,69
2023-03-29T00:14:07.567Z,70
2023-03-29T00:14:39.954Z,70
2023-03-29T00:15:11.236Z,70
2023-03-29T00:15:44.107Z,70
2023-03-29T00:16:14.994Z,71
2023-03-29T00:16:48.159Z,71
2023-03-29T00:17:18.834Z,71
2023-03-29T00:17:51.891Z,71
2023-03-29T00:18:22.968Z,71
2023-03-29T00:18:56.001Z,72
2023-03-29T00:19:26.760Z,72
2023-03-29T00:19:59.884Z,72
2023-03-29T00:20:30.981Z,72
2023-03-29T00:21:04.302Z,72
2023-03-29T00:21:34.652Z,72
2023-03-29T00:22:07.720Z,73
2023-03-29T00:22:38.947Z,73
2023-03-29T00:23:11.867Z,73
2023-03-29T00:23:42.486Z,73
2023-03-29T00:24:15.699Z,73
2023-03-29T00:24:46.626Z,73
2023-03-29T00:25:19.689Z,74
2023-03-29T00:25:50.439Z,74
2023-03-29T00:26:23.403Z,74
2023-03-29T00:26:54.403Z,74
2023-03-29T00:27:27.333Z,75
2023-03-29T00:27:58.413Z,75
2023-03-29T00:28:31.385Z,75
2023-03-29T00:29:02.309Z,75
2023-03-29T00:29:35.295Z,75
2023-03-29T00:30:06.447Z,75
2023-03-29T00:30:39.223Z,75
2023-03-29T00:31:10.378Z,75
2023-03-29T00:31:43.410Z,75
2023-03-29T00:32:14.149Z,75
2023-03-29T00:32:47.082Z,76
2023-03-29T00:33:18.165Z,76
2023-03-29T00:33:51.256Z,76
2023-03-29T00:34:22.035Z,76
2023-03-29T00:34:54.922Z,76
2023-03-29T00:35:26.081Z,76
2023-03-29T00:35:59.081Z,76
2023-03-29T00:36:29.937Z,76
2023-03-29T00:37:02.854Z,76
2023-03-29T00:37:34.042Z,76
2023-03-29T00:38:06.978Z,77
2023-03-29T00:38:37.893Z,77
2023-03-29T00:39:11.033Z,77
2023-03-29T00:39:41.876Z,77
2023-03-29T00:40:14.935Z,77
2023-03-29T00:40:45.713Z,77
2023-03-29T00:41:18.660Z,78
2023-03-29T00:41:49.789Z,78
2023-03-29T00:42:22.752Z,78
2023-03-29T00:42:53.680Z,78
2023-03-29T00:43:26.560Z,78
2023-03-29T00:43:57.765Z,79
2023-03-29T00:44:30.723Z,79
2023-03-29T00:45:01.844Z,79
2023-03-29T00:45:34.692Z,79
2023-03-29T00:46:05.671Z,79
2023-03-29T00:46:38.608Z,79
2023-03-29T00:47:09.510Z,79
2023-03-29T00:47:42.478Z,80
2023-03-29T00:48:13.564Z,80
2023-03-29T00:48:46.564Z,80
2023-03-29T00:49:17.361Z,80
2023-03-29T00:49:50.382Z,80
2023-03-29T00:50:21.470Z,80
2023-03-29T00:50:54.337Z,80
2023-03-29T00:51:25.315Z,80
2023-03-29T00:51:58.292Z,80
2023-03-29T00:52:29.355Z,80
2023-03-29T00:53:02.298Z,80
2023-03-29T00:53:33.683Z,80
2023-03-29T00:54:06.257Z,80
2023-03-29T00:54:37.304Z,80
2023-03-29T00:55:10.545Z,80
2023-03-29T00:55:41.255Z,80
2023-03-29T00:56:14.201Z,80
2023-03-29T00:56:45.199Z,80
2023-03-29T00:57:18.145Z,80
2023-03-29T00:57:49.059Z,80
2023-03-29T00:58:21.985Z,81
2023-03-29T00:58:53.096Z,81
2023-03-29T00:59:26.004Z,81
2023-03-29T00:59:56.945Z,81
2023-03-29T01:00:29.963Z,81
2023-03-29T01:01:01.347Z,81
2023-03-29T01:01:34.301Z,81
2023-03-29T01:02:04.890Z,81
2023-03-29T01:02:37.942Z,81
2023-03-29T01:03:09.117Z,81
2023-03-29T01:03:41.942Z,81
2023-03-29T01:04:12.766Z,81
2023-03-29T01:04:45.707Z,81
2023-03-29T01:05:16.825Z,81
2023-03-29T01:05:49.757Z,81
2023-03-29T01:06:20.797Z,81
2023-03-29T01:06:53.806Z,81
2023-03-29T01:07:24.725Z,81
2023-03-29T01:07:58.302Z,82
2023-03-29T01:08:28.578Z,82
2023-03-29T01:09:01.632Z,82
2023-03-29T01:09:32.642Z,82
2023-03-29T01:10:05.652Z,82
2023-03-29T01:10:36.547Z,82
2023-03-29T01:11:09.518Z,82
2023-03-29T01:11:40.652Z,82
2023-03-29T01:12:13.457Z,82
2023-03-29T01:12:44.379Z,82
2023-03-29T01:13:17.314Z,82
2023-03-29T01:13:48.495Z,82
2023-03-29T01:14:21.967Z,82
2023-03-29T01:14:52.318Z,82
2023-03-29T01:15:25.328Z,82
2023-03-29T01:15:56.450Z,82
2023-03-29T01:16:29.319Z,83
2023-03-29T01:17:00.223Z,82
2023-03-29T01:17:33.276Z,83
2023-03-29T01:18:04.337Z,83
2023-03-29T01:18:37.242Z,83
2023-03-29T01:19:08.851Z,83
2023-03-29T01:19:41.271Z,83
2023-03-29T01:20:12.180Z,83
2023-03-29T01:20:45.223Z,83
2023-03-29T01:21:16.025Z,83
2023-03-29T01:21:48.966Z,83
2023-03-29T01:22:20.103Z,83
2023-03-29T01:22:53.145Z,83
2023-03-29T01:23:23.954Z,83
2023-03-29T01:23:56.850Z,83
2023-03-29T01:24:28.182Z,83
2023-03-29T01:25:01.069Z,83
2023-03-29T01:25:31.876Z,83
2023-03-29T01:26:04.826Z,83
2023-03-29T01:26:35.926Z,83
2023-03-29T01:27:08.921Z,83
2023-03-29T01:27:39.755Z,83
2023-03-29T01:28:12.704Z,83
2023-03-29T01:28:43.844Z,83
2023-03-29T01:29:16.810Z,83
2023-03-29T01:29:47.692Z,83
2023-03-29T01:30:20.803Z,83
2023-03-29T01:30:51.822Z,83
2023-03-29T01:31:24.668Z,83
2023-03-29T01:31:55.607Z,83
2023-03-29T01:32:28.564Z,83
2023-03-29T01:32:59.658Z,83
2023-03-29T01:33:32.647Z,83
2023-03-29T01:34:03.511Z,83
2023-03-29T01:34:36.447Z,83
2023-03-29T01:35:07.654Z,83
2023-03-29T01:35:40.674Z,83
2023-03-29T01:36:11.523Z,83
2023-03-29T01:36:44.599Z,83
2023-03-29T01:37:15.527Z,83
2023-03-29T01:37:48.351Z,83
2023-03-29T01:38:19.499Z,83
2023-03-29T01:38:52.320Z,83
2023-03-29T01:39:23.333Z,84
2023-03-29T01:39:56.256Z,84
2023-03-29T01:40:27.573Z,84
2023-03-29T01:41:00.495Z,84
2023-03-29T01:41:31.387Z,84
2023-03-29T01:42:04.249Z,84
2023-03-29T01:42:35.371Z,84
2023-03-29T01:43:08.100Z,84
2023-03-29T01:43:39.223Z,84
2023-03-29T01:44:12.213Z,84
2023-03-29T01:44:43.097Z,84
2023-03-29T01:45:16.064Z,84
2023-03-29T01:45:47.133Z,84
2023-03-29T01:46:20.102Z,84
2023-03-29T01:46:51.054Z,84
2023-03-29T01:47:23.950Z,84
2023-03-29T01:47:55.053Z,84
2023-03-29T01:48:27.973Z,84
2023-03-29T01:48:58.872Z,84
2023-03-29T01:49:31.822Z,84
2023-03-29T01:50:02.944Z,84
2023-03-29T01:50:35.864Z,85
2023-03-29T01:51:06.815Z,85
2023-03-29T01:51:39.723Z,84
2023-03-29T01:52:10.917Z,84
2023-03-29T01:52:43.796Z,85
2023-03-29T01:53:14.810Z,85
2023-03-29T01:53:47.604Z,85
2023-03-29T01:54:18.775Z,85
2023-03-29T01:54:51.660Z,85
2023-03-29T01:55:22.616Z,85
2023-03-29T01:55:55.778Z,85
2023-03-29T01:56:26.629Z,85
2023-03-29T01:56:59.622Z,85
2023-03-29T01:57:30.864Z,85
2023-03-29T01:58:03.544Z,85
2023-03-29T01:58:35.058Z,85
2023-03-29T01:59:08.109Z,85
2023-03-29T01:59:38.396Z,85
2023-03-29T02:00:11.750Z,85
2023-03-29T02:00:42.515Z,85
2023-03-29T02:01:15.429Z,85
2023-03-29T02:01:46.543Z,85
2023-03-29T02:02:19.342Z,85
2023-03-29T02:02:50.507Z,85
2023-03-29T02:03:23.532Z,85
2023-03-29T02:03:54.400Z,85
2023-03-29T02:04:27.131Z,85
2023-03-29T02:04:58.255Z,85
2023-03-29T02:05:31.423Z,85
2023-03-29T02:06:02.332Z,85
2023-03-29T02:06:35.065Z,85
2023-03-29T02:07:06.204Z,85
2023-03-29T02:07:39.119Z,85
2023-03-29T02:08:10.286Z,85
2023-03-29T02:08:43.047Z,85
2023-03-29T02:09:14.115Z,85
2023-03-29T02:09:47.066Z,85
2023-03-29T02:10:17.972Z,85
2023-03-29T02:10:50.981Z,85
2023-03-29T02:11:22.002Z,85
2023-03-29T02:11:54.926Z,85
2023-03-29T02:12:25.855Z,85
2023-03-29T02:12:58.860Z,85
2023-03-29T02:13:29.982Z,85
2023-03-29T02:14:02.846Z,85
2023-03-29T02:14:33.820Z,85
2023-03-29T02:15:07.145Z,85
2023-03-29T02:15:37.857Z,85
2023-03-29T02:16:10.898Z,85
2023-03-29T02:16:41.684Z,85
2023-03-29T02:17:14.590Z,85
2023-03-29T02:17:45.754Z,85
2023-03-29T02:18:18.962Z,85
2023-03-29T02:18:49.813Z,85
2023-03-29T02:19:22.505Z,85
2023-03-29T02:19:53.651Z,85
2023-03-29T02:20:26.604Z,85
2023-03-29T02:20:57.523Z,85
2023-03-29T02:21:30.511Z,85
2023-03-29T02:22:01.593Z,85
2023-03-29T02:22:35.317Z,85
2023-03-29T02:23:05.464Z,85
2023-03-29T02:23:38.362Z,85
2023-03-29T02:24:09.588Z,85
2023-03-29T02:24:42.319Z,85
2023-03-29T02:25:13.328Z,85
2023-03-29T02:25:46.673Z,85
2023-03-29T02:26:17.357Z,85
2023-03-29T02:26:50.534Z,85
2023-03-29T02:27:21.522Z,85
2023-03-29T02:27:54.160Z,85
2023-03-29T02:28:25.274Z,85
2023-03-29T02:28:58.503Z,85
2023-03-29T02:29:29.177Z,85
2023-03-29T02:30:02.234Z,85
2023-03-29T02:30:33.254Z,85
2023-03-29T02:31:06.412Z,85
2023-03-29T02:31:37.145Z,85
2023-03-29T02:32:10.188Z,85
2023-03-29T02:32:41.252Z,85
2023-03-29T02:33:14.059Z,85
2023-03-29T02:33:44.959Z,85
2023-03-29T02:34:17.890Z,85
2023-03-29T02:34:49.070Z,86
2023-03-29T02:35:21.979Z,86
2023-03-29T02:35:52.939Z,86
2023-03-29T02:36:25.789Z,86
2023-03-29T02:36:56.914Z,85
2023-03-29T02:37:30.006Z,85
2023-03-29T02:38:01.105Z,85
2023-03-29T02:38:33.861Z,85
2023-03-29T02:39:04.861Z,85
2023-03-29T02:39:37.754Z,85
2023-03-29T02:40:08.724Z,85
2023-03-29T02:40:41.637Z,85
2023-03-29T02:41:12.762Z,85
2023-03-29T02:41:45.779Z,85
2023-03-29T02:42:16.782Z,85
2023-03-29T02:42:49.718Z,86
2023-03-29T02:43:20.770Z,86
2023-03-29T02:43:53.680Z,85
2023-03-29T02:44:25.968Z,85
2023-03-29T02:44:57.424Z,85
2023-03-29T02:45:28.671Z,85
2023-03-29T02:46:01.833Z,85
2023-03-29T02:46:32.702Z,85
2023-03-29T02:47:05.366Z,85
2023-03-29T02:47:36.474Z,85
2023-03-29T02:48:09.616Z,85
2023-03-29T02:48:40.720Z,85
2023-03-29T02:49:13.284Z,85
2023-03-29T02:49:44.375Z,85
2023-03-29T02:50:17.498Z,85
2023-03-29T02:50:48.465Z,86
2023-03-29T02:51:21.406Z,86
2023-03-29T02:51:52.296Z,86
2023-03-29T02:52:25.258Z,86
2023-03-29T02:52:56.369Z,86
2023-03-29T02:53:29.183Z,86
2023-03-29T02:54:00.292Z,86
2023-03-29T02:54:33.150Z,86
2023-03-29T02:55:04.296Z,86
2023-03-29T02:55:36.968Z,86
2023-03-29T02:56:08.122Z,86
2023-03-29T02:56:41.360Z,86
2023-03-29T02:57:12.229Z,86
2023-03-29T02:57:44.874Z,86
2023-03-29T02:58:15.993Z,86
2023-03-29T02:58:48.964Z,86
2023-03-29T02:59:20.155Z,86
2023-03-29T02:59:52.919Z,86
2023-03-29T03:00:24.242Z,86
2023-03-29T03:00:57.047Z,85
2023-03-29T03:01:28.077Z,85
2023-03-29T03:02:01.027Z,85
2023-03-29T03:02:31.901Z,86
2023-03-29T03:03:05.019Z,86
2023-03-29T03:03:36.076Z,86
2023-03-29T03:04:08.656Z,86
2023-03-29T03:04:39.811Z,86
2023-03-29T03:05:12.798Z,86
2023-03-29T03:05:43.832Z,86
2023-03-29T03:06:16.516Z,86
2023-03-29T03:06:47.860Z,86
2023-03-29T03:07:20.688Z,86
2023-03-29T03:07:51.745Z,86
2023-03-29T03:08:24.503Z,86
2023-03-29T03:08:55.540Z,86
2023-03-29T03:09:28.482Z,86
2023-03-29T03:09:59.629Z,86
2023-03-29T03:10:32.358Z,86
2023-03-29T03:11:03.737Z,86
2023-03-29T03:11:36.503Z,86
2023-03-29T03:12:07.570Z,86
2023-03-29T03:12:40.394Z,86
2023-03-29T03:13:11.563Z,86
2023-03-29T03:13:44.335Z,86
2023-03-29T03:14:15.430Z,86
2023-03-29T03:14:48.154Z,86
2023-03-29T03:15:19.783Z,86
2023-03-29T03:15:52.227Z,86
2023-03-29T03:16:23.348Z,86
2023-03-29T03:16:56.217Z,86
2023-03-29T03:17:27.241Z,86
2023-03-29T03:18:00.371Z,86
2023-03-29T03:18:31.410Z,86
2023-03-29T03:19:04.466Z,86
2023-03-29T03:19:35.127Z,86
2023-03-29T03:20:08.043Z,86
2023-03-29T03:20:39.201Z,86
2023-03-29T03:21:12.051Z,86
2023-03-29T03:21:43.027Z,86
2023-03-29T03:22:15.995Z,86
2023-03-29T03:22:47.163Z,86
2023-03-29T03:23:19.998Z,86
2023-03-29T03:23:50.990Z,86
2023-03-29T03:24:23.866Z,86
2023-03-29T03:24:54.967Z,86
2023-03-29T03:25:27.920Z,86
2023-03-29T03:25:58.873Z,86
2023-03-29T03:26:31.769Z,86
2023-03-29T03:27:02.897Z,86
2023-03-29T03:27:36.104Z,86
2023-03-29T03:28:06.705Z,86
2023-03-29T03:28:39.760Z,86
2023-03-29T03:29:10.885Z,86
2023-03-29T03:29:43.754Z,86
2023-03-29T03:30:14.736Z,86
2023-03-29T03:30:47.635Z,86
2023-03-29T03:31:18.681Z,86
2023-03-29T03:31:53.283Z,86
2023-03-29T03:32:22.640Z,86
2023-03-29T03:32:55.502Z,86
2023-03-29T03:33:26.576Z,86
2023-03-29T03:33:59.608Z,86
2023-03-29T03:34:30.592Z,86
2023-03-29T03:35:03.408Z,86
2023-03-29T03:35:35.286Z,86
2023-03-29T03:36:07.666Z,86
2023-03-29T03:36:38.340Z,86
2023-03-29T03:37:11.341Z,86
2023-03-29T03:37:42.557Z,86
2023-03-29T03:38:15.369Z,86
2023-03-29T03:38:46.246Z,86
2023-03-29T03:39:19.267Z,86
2023-03-29T03:39:50.612Z,86
2023-03-29T03:40:23.357Z,86
2023-03-29T03:40:54.242Z,86
2023-03-29T03:41:27.083Z,86
2023-03-29T03:41:58.295Z,86
2023-03-29T03:42:31.304Z,86
2023-03-29T03:43:02.193Z,86
2023-03-29T03:43:35.184Z,86
2023-03-29T03:44:06.099Z,86
2023-03-29T03:44:39.033Z,86
2023-03-29T03:45:10.235Z,86
2023-03-29T03:45:43.093Z,86
2023-03-29T03:46:14.082Z,86
2023-03-29T03:46:47.068Z,86
2023-03-29T03:47:17.881Z,86
2023-03-29T03:47:51.001Z,86
2023-03-29T03:48:21.921Z,86
2023-03-29T03:48:54.958Z,86
2023-03-29T03:49:25.770Z,86
2023-03-29T03:49:58.725Z,86
2023-03-29T03:50:29.987Z,86
2023-03-29T03:51:02.991Z,86
2023-03-29T03:51:33.718Z,86
2023-03-29T03:52:06.664Z,86
2023-03-29T03:52:37.754Z,86
2023-03-29T03:53:11.013Z,86
2023-03-29T03:53:41.811Z,86
2023-03-29T03:54:14.539Z,86
2023-03-29T03:54:45.654Z,86
2023-03-29T03:55:18.608Z,86
2023-03-29T03:55:49.545Z,86
2023-03-29T03:56:22.436Z,86
2023-03-29T03:56:53.585Z,86
2023-03-29T03:57:26.523Z,86
2023-03-29T03:57:57.604Z,86
2023-03-29T03:58:30.590Z,86
2023-03-29T03:59:01.540Z,86
2023-03-29T03:59:34.520Z,86
2023-03-29T04:00:05.715Z,86
2023-03-29T04:00:38.308Z,86
2023-03-29T04:01:09.625Z,86
2023-03-29T04:01:42.429Z,86
2023-03-29T04:02:13.330Z,86
2023-03-29T04:02:46.293Z,86
2023-03-29T04:03:17.494Z,86
2023-03-29T04:03:50.348Z,86
2023-03-29T04:04:21.689Z,86
2023-03-29T04:04:54.107Z,86
2023-03-29T04:05:25.272Z,86
2023-03-29T04:05:58.189Z,86
2023-03-29T04:06:29.089Z,86
2023-03-29T04:07:02.127Z,86
2023-03-29T04:07:33.128Z,86
2023-03-29T04:08:06.310Z,86
2023-03-29T04:08:37.145Z,86
2023-03-29T04:09:09.918Z,86
2023-03-29T04:09:41.132Z,86
2023-03-29T04:10:13.874Z,86
2023-03-29T04:10:45.087Z,86
2023-03-29T04:11:17.835Z,86
2023-03-29T04:11:48.933Z,86
2023-03-29T04:12:21.866Z,86
2023-03-29T04:12:53.015Z,86
2023-03-29T04:13:25.812Z,86
2023-03-29T04:13:56.825Z,86
2023-03-29T04:14:29.824Z,86
2023-03-29T04:15:01.241Z,86
2023-03-29T04:15:33.836Z,86
2023-03-29T04:16:04.795Z,86
2023-03-29T04:16:37.692Z,86
2023-03-29T04:17:08.786Z,86
2023-03-29T04:17:41.640Z,86
2023-03-29T04:18:12.753Z,86
2023-03-29T04:18:45.752Z,86
2023-03-29T04:19:16.693Z,86
2023-03-29T04:19:49.557Z,86
2023-03-29T04:20:20.934Z,86
2023-03-29T04:20:53.486Z,86
2023-03-29T04:21:24.623Z,86
2023-03-29T04:21:57.359Z,86
2023-03-29T04:22:28.484Z,86
2023-03-29T04:23:01.642Z,86
2023-03-29T04:23:32.537Z,86
2023-03-29T04:24:05.365Z,86
2023-03-29T04:24:36.368Z,86
2023-03-29T04:25:09.325Z,86
2023-03-29T04:25:40.615Z,86
2023-03-29T04:26:13.147Z,86
2023-03-29T04:26:44.295Z,86
2023-03-29T04:27:17.186Z,86
2023-03-29T04:27:48.311Z,86
2023-03-29T04:28:21.138Z,86
2023-03-29T04:28:52.189Z,86
2023-03-29T04:29:25.136Z,86
2023-03-29T04:29:56.253Z,86
2023-03-29T04:30:29.114Z,86
2023-03-29T04:31:00.488Z,86
2023-03-29T04:31:33.196Z,86
2023-03-29T04:32:04.217Z,86
2023-03-29T04:32:38.195Z,86
2023-03-29T04:33:08.073Z,86
2023-03-29T04:33:41.143Z,86
2023-03-29T04:34:12.096Z,86
2023-03-29T04:34:44.917Z,86
2023-03-29T04:35:16.129Z,86
2023-03-29T04:35:48.907Z,86
2023-03-29T04:36:20.057Z,86
2023-03-29T04:36:52.696Z,86
2023-03-29T04:37:23.824Z,86
2023-03-29T04:37:56.851Z,86
2023-03-29T04:38:28.018Z,86
2023-03-29T04:39:00.933Z,86
2023-03-29T04:39:31.746Z,86
2023-03-29T04:40:04.679Z,86
2023-03-29T04:40:35.783Z,86
2023-03-29T04:41:08.761Z,86
2023-03-29T04:41:39.686Z,86
2023-03-29T04:42:12.550Z,86
2023-03-29T04:42:43.692Z,86
2023-03-29T04:43:16.700Z,86
2023-03-29T04:43:47.547Z,86
2023-03-29T04:44:20.678Z,86
2023-03-29T04:44:51.615Z,86
2023-03-29T04:45:24.671Z,86
2023-03-29T04:45:55.595Z,86
2023-03-29T04:46:28.587Z,86
2023-03-29T04:46:59.601Z,86
2023-03-29T04:47:32.467Z,86
2023-03-29T04:48:03.348Z,86
2023-03-29T04:48:36.364Z,86
2023-03-29T04:49:07.436Z,86
2023-03-29T04:49:40.549Z,86
2023-03-29T04:50:11.318Z,86
2023-03-29T04:50:44.474Z,86
2023-03-29T04:51:15.419Z,86
2023-03-29T04:51:48.263Z,86
2023-03-29T04:52:19.200Z,86
2023-03-29T04:52:52.118Z,86
2023-03-29T04:53:23.270Z,86
2023-03-29T04:53:56.264Z,86
2023-03-29T04:54:27.151Z,86
2023-03-29T04:55:00.123Z,86
2023-03-29T04:55:31.345Z,86
2023-03-29T04:56:04.152Z,86
2023-03-29T04:56:35.079Z,86
2023-03-29T04:57:08.164Z,86
2023-03-29T04:57:39.163Z,86
2023-03-29T04:58:12.185Z,86
2023-03-29T04:58:42.914Z,86
2023-03-29T04:59:15.864Z,86
2023-03-29T04:59:46.995Z,86
2023-03-29T05:00:20.237Z,86
2023-03-29T05:00:50.948Z,87
2023-03-29T05:01:24.687Z,87
2023-03-29T05:01:54.945Z,87
2023-03-29T05:02:27.847Z,87
2023-03-29T05:02:58.895Z,87
2023-03-29T05:03:31.769Z,87
2023-03-29T05:04:02.817Z,87
2023-03-29T05:04:35.944Z,87
2023-03-29T05:05:06.731Z,87
2023-03-29T05:05:39.576Z,87
2023-03-29T05:06:10.910Z,87
2023-03-29T05:06:43.743Z,87
2023-03-29T05:07:14.699Z,87
2023-03-29T05:07:47.502Z,87
2023-03-29T05:08:18.577Z,87
2023-03-29T05:08:51.536Z,87
2023-03-29T05:09:22.448Z,87
2023-03-29T05:09:55.494Z,87
2023-03-29T05:10:26.559Z,87
2023-03-29T05:10:59.575Z,87
2023-03-29T05:11:30.693Z,87
2023-03-29T05:12:03.288Z,87
2023-03-29T05:12:34.919Z,87
2023-03-29T05:13:07.361Z,87
2023-03-29T05:13:38.510Z,87
2023-03-29T05:14:11.287Z,87
2023-03-29T05:14:42.308Z,87
2023-03-29T05:15:15.359Z,87
2023-03-29T05:15:46.412Z,87
2023-03-29T05:16:19.155Z,87
2023-03-29T05:16:50.286Z,87
2023-03-29T05:17:23.253Z,87
2023-03-29T05:17:54.318Z,87
2023-03-29T05:18:27.152Z,87
2023-03-29T05:18:58.152Z,87
2023-03-29T05:19:31.405Z,87
2023-03-29T05:20:02.395Z,87
2023-03-29T05:20:36.002Z,87
2023-03-29T05:21:06.084Z,87
2023-03-29T05:21:39.073Z,87
2023-03-29T05:22:10.183Z,87
2023-03-29T05:22:42.828Z,87
2023-03-29T05:23:14.069Z,87
2023-03-29T05:23:46.897Z,87
2023-03-29T05:24:18.013Z,87
2023-03-29T05:24:50.890Z,87
2023-03-29T05:25:21.951Z,87
2023-03-29T05:25:54.788Z,87
2023-03-29T05:26:25.953Z,87
2023-03-29T05:26:58.692Z,87
2023-03-29T05:27:29.781Z,87
2023-03-29T05:28:02.787Z,87
2023-03-29T05:28:33.960Z,87
2023-03-29T05:29:06.583Z,87
2023-03-29T05:29:37.951Z,87
2023-03-29T05:30:12.376Z,87
2023-03-29T05:30:41.741Z,87
2023-03-29T05:31:16.815Z,87
2023-03-29T05:31:45.700Z,87
2023-03-29T05:32:18.522Z,87
2023-03-29T05:32:49.690Z,87
2023-03-29T05:33:22.443Z,87
2023-03-29T05:33:53.472Z,87
2023-03-29T05:34:26.466Z,86
2023-03-29T05:34:57.755Z,86
2023-03-29T05:35:30.441Z,87
2023-03-29T05:36:01.480Z,86
2023-03-29T05:36:34.327Z,86
2023-03-29T05:37:05.467Z,86
2023-03-29T05:37:39.209Z,86
2023-03-29T05:38:09.303Z,86
2023-03-29T05:38:42.309Z,86
2023-03-29T05:39:13.562Z,86
2023-03-29T05:39:46.325Z,86
2023-03-29T05:40:17.199Z,86
2023-03-29T05:40:50.126Z,86
2023-03-29T05:41:21.337Z,86
2023-03-29T05:41:54.245Z,86
2023-03-29T05:42:25.439Z,86
2023-03-29T05:42:58.054Z,86
2023-03-29T05:43:29.193Z,86
2023-03-29T05:44:02.175Z,86
2023-03-29T05:44:33.030Z,86
2023-03-29T05:45:06.372Z,86
2023-03-29T05:45:37.101Z,86
2023-03-29T05:46:10.391Z,86
2023-03-29T05:46:41.059Z,86
2023-03-29T05:47:14.090Z,86
2023-03-29T05:47:45.070Z,86
2023-03-29T05:48:18.016Z,86
2023-03-29T05:48:48.868Z,86
2023-03-29T05:49:21.880Z,86
2023-03-29T05:49:52.884Z,86
2023-03-29T05:50:25.875Z,86
2023-03-29T05:50:56.778Z,86
2023-03-29T05:51:29.676Z,85
2023-03-29T05:52:00.985Z,85
2023-03-29T05:52:33.734Z,85
2023-03-29T05:53:04.658Z,85
2023-03-29T05:53:37.778Z,85
2023-03-29T05:54:08.705Z,86
2023-03-29T05:54:41.736Z,86
2023-03-29T05:55:12.561Z,86
2023-03-29T05:55:45.534Z,86
2023-03-29T05:56:16.599Z,86
2023-03-29T05:56:49.638Z,85
2023-03-29T05:57:20.699Z,85
2023-03-29T05:57:53.538Z,85
2023-03-29T05:58:24.686Z,85
2023-03-29T05:58:57.560Z,85
2023-03-29T05:59:28.377Z,85
2023-03-29T06:00:01.768Z,85
2023-03-29T06:00:32.453Z,85
2023-03-29T06:01:05.394Z,85
2023-03-29T06:01:36.283Z,85
2023-03-29T06:02:09.265Z,85
2023-03-29T06:02:40.832Z,85
2023-03-29T06:03:20.192Z,85
2023-03-29T06:03:44.409Z,85
2023-03-29T06:04:17.262Z,85
2023-03-29T06:04:48.358Z,85
2023-03-29T06:05:21.340Z,85
2023-03-29T06:05:52.124Z,85
2023-03-29T06:06:25.068Z,85
2023-03-29T06:06:56.177Z,85
2023-03-29T06:07:29.148Z,85
2023-03-29T06:08:01.224Z,85
2023-03-29T06:08:32.964Z,85
2023-03-29T06:09:04.112Z,85
2023-03-29T06:09:37.144Z,85
2023-03-29T06:10:07.960Z,85
2023-03-29T06:10:40.973Z,85
2023-03-29T06:11:11.990Z,85
2023-03-29T06:11:45.025Z,85
2023-03-29T06:12:15.913Z,85
2023-03-29T06:12:48.760Z,85
2023-03-29T06:13:19.912Z,85
2023-03-29T06:13:52.913Z,85
2023-03-29T06:14:23.815Z,85
2023-03-29T06:14:56.791Z,84
2023-03-29T06:15:28.149Z,84
2023-03-29T06:16:00.952Z,84
2023-03-29T06:16:32.058Z,84
2023-03-29T06:17:04.614Z,84
2023-03-29T06:17:35.707Z,84
2023-03-29T06:18:08.720Z,84
2023-03-29T06:18:39.811Z,84
2023-03-29T06:19:12.480Z,84
2023-03-29T06:19:43.624Z,84
2023-03-29T06:20:16.549Z,84
2023-03-29T06:20:47.501Z,84
2023-03-29T06:21:20.491Z,84
2023-03-29T06:21:51.555Z,84
2023-03-29T06:22:24.521Z,84
2023-03-29T06:22:55.637Z,84
2023-03-29T06:23:28.300Z,84
2023-03-29T06:23:59.409Z,83
2023-03-29T06:24:32.505Z,84
2023-03-29T06:25:03.405Z,84
2023-03-29T06:25:36.263Z,84
2023-03-29T06:26:07.341Z,84
2023-03-29T06:26:40.353Z,84
2023-03-29T06:27:11.341Z,84
2023-03-29T06:27:44.137Z,83
2023-03-29T06:28:15.443Z,83
2023-03-29T06:28:51.316Z,83
2023-03-29T06:29:19.119Z,83
2023-03-29T06:29:52.068Z,84
2023-03-29T06:30:23.306Z,84
2023-03-29T06:30:56.244Z,83
2023-03-29T06:31:27.307Z,83
2023-03-29T06:31:59.978Z,83
2023-03-29T06:32:31.198Z,83
2023-03-29T06:33:07.023Z,83
2023-03-29T06:33:35.114Z,83
2023-03-29T06:34:07.864Z,83
2023-03-29T06:34:38.979Z,83
2023-03-29T06:35:11.928Z,83
2023-03-29T06:35:43.064Z,83
2023-03-29T06:36:15.975Z,83
2023-03-29T06:36:46.869Z,83
2023-03-29T06:37:19.730Z,83
2023-03-29T06:37:51.032Z,83
2023-03-29T06:38:23.699Z,83
2023-03-29T06:38:54.814Z,83
2023-03-29T06:39:28.034Z,83
2023-03-29T06:39:58.855Z,83
2023-03-29T06:40:32.472Z,83
2023-03-29T06:41:02.969Z,83
2023-03-29T06:41:35.619Z,83
2023-03-29T06:42:20.130Z,83
2023-03-29T06:42:39.485Z,83
2023-03-29T06:43:10.803Z,83
2023-03-29T06:43:43.527Z,83
2023-03-29T06:44:14.655Z,83
2023-03-29T06:44:47.388Z,83
2023-03-29T06:45:20.587Z,83
2023-03-29T06:45:51.764Z,83
2023-03-29T06:46:22.730Z,83
2023-03-29T06:46:55.753Z,83
2023-03-29T06:47:26.507Z,83
2023-03-29T06:47:59.395Z,83
2023-03-29T06:48:30.663Z,83
2023-03-29T06:49:03.278Z,83
2023-03-29T06:49:34.333Z,83
2023-03-29T06:50:07.403Z,83
2023-03-29T06:50:38.390Z,83
2023-03-29T06:51:11.293Z,83
2023-03-29T06:51:42.234Z,83
2023-03-29T06:52:15.174Z,83
2023-03-29T06:52:46.298Z,83
2023-03-29T06:53:19.161Z,83
2023-03-29T06:53:50.237Z,83
2023-03-29T06:54:23.102Z,83
2023-03-29T06:54:54.289Z,83
2023-03-29T06:55:27.142Z,83
2023-03-29T06:55:58.309Z,83
2023-03-29T06:56:31.078Z,83
2023-03-29T06:57:02.370Z,83
2023-03-29T06:57:35.150Z,83
2023-03-29T06:58:05.968Z,83
2023-03-29T06:58:39.109Z,83
2023-03-29T06:59:10.006Z,83
2023-03-29T06:59:42.773Z,83
2023-03-29T07:00:15.503Z,83
2023-03-29T07:00:46.991Z,83
2023-03-29T07:01:17.928Z,83
2023-03-29T07:01:50.965Z,83
2023-03-29T07:02:21.805Z,83
2023-03-29T07:02:54.804Z,83
2023-03-29T07:03:26.007Z,83
2023-03-29T07:03:58.857Z,83
2023-03-29T07:04:29.785Z,83
2023-03-29T07:05:02.623Z,83
2023-03-29T07:05:33.743Z,83
2023-03-29T07:06:06.734Z,83
2023-03-29T07:06:37.562Z,83
2023-03-29T07:07:10.589Z,83
2023-03-29T07:07:41.644Z,83
2023-03-29T07:08:14.571Z,83
2023-03-29T07:08:45.547Z,83
2023-03-29T07:09:19.598Z,82
2023-03-29T07:09:49.538Z,83
2023-03-29T07:10:22.572Z,83
2023-03-29T07:10:53.553Z,83
2023-03-29T07:11:26.338Z,82
2023-03-29T07:11:57.486Z,82
2023-03-29T07:12:30.485Z,83
2023-03-29T07:13:01.364Z,83
2023-03-29T07:13:34.423Z,83
2023-03-29T07:14:05.339Z,83
2023-03-29T07:14:38.303Z,83
2023-03-29T07:15:09.424Z,83
2023-03-29T07:15:42.247Z,83
2023-03-29T07:16:13.382Z,83
2023-03-29T07:16:46.206Z,83
2023-03-29T07:17:17.108Z,82
2023-03-29T07:17:50.068Z,82
2023-03-29T07:18:21.234Z,83
2023-03-29T07:18:54.226Z,82
2023-03-29T07:19:25.027Z,82
2023-03-29T07:19:58.031Z,82
2023-03-29T07:20:29.114Z,82
2023-03-29T07:21:02.329Z,82
2023-03-29T07:21:35.992Z,82
2023-03-29T07:22:06.011Z,82
2023-03-29T07:22:37.003Z,82
2023-03-29T07:23:09.949Z,82
2023-03-29T07:23:40.943Z,82
2023-03-29T07:24:13.803Z,82
2023-03-29T07:24:44.904Z,82
2023-03-29T07:25:17.809Z,82
2023-03-29T07:25:48.729Z,82
2023-03-29T07:26:28.828Z,81
2023-03-29T07:27:03.228Z,81
2023-03-29T07:27:25.704Z,81
2023-03-29T07:27:56.848Z,81
2023-03-29T07:28:29.688Z,81
2023-03-29T07:29:00.853Z,81
2023-03-29T07:29:33.702Z,81
2023-03-29T07:30:04.854Z,81
2023-03-29T07:30:37.720Z,81
2023-03-29T07:31:08.667Z,81
2023-03-29T07:31:41.637Z,81
2023-03-29T07:32:12.590Z,81
2023-03-29T07:32:45.728Z,81
2023-03-29T07:33:16.668Z,81
2023-03-29T07:33:49.851Z,81
2023-03-29T07:34:20.668Z,81
2023-03-29T07:34:53.602Z,81
2023-03-29T07:35:24.826Z,80
2023-03-29T07:35:57.738Z,80